Time;durP1;ratioP1;P1;durP2;ratioP2;P2;SDS_P1;SDS_P2;PMS_P1;PMS_P2;Temp;Humidity;BMP_temperature;BMP_pressure;BME280_temperature;BME280_humidity;BME280_pressure;Samples;Min_cycle;Max_cycle;Signal;HPM_P1;HPM_P2
2021/05/16 00:02:19;;;;;;;1.45;1.08;;;;;;;11.90;83.95;92737.75;5070574;28;20029;-46
2021/05/16 00:04:45;;;;;;;1.88;1.50;;;;;;;11.76;84.54;92730.41;5070903;28;20028;-45
2021/05/16 00:07:10;;;;;;;1.23;1.13;;;;;;;11.74;85.17;92733.72;5070889;28;20486;-45
2021/05/16 00:10:10;;;;;;;1.80;1.40;;;;;;;11.50;85.78;92737.34;5070700;28;20032;-45
2021/05/16 00:12:38;;;;;;;2.92;1.45;;;;;;;11.43;86.39;92733.34;5070285;28;20493;-45
2021/05/16 00:15:21;;;;;;;2.60;1.23;;;;;;;11.59;86.49;92733.91;5070888;28;20107;-46
2021/05/16 00:18:05;;;;;;;1.75;0.68;;;;;;;11.74;85.77;92730.22;5070480;28;20614;-48
2021/05/16 00:20:34;;;;;;;1.60;1.35;;;;;;;11.81;85.19;92730.13;5070750;28;20028;-47
2021/05/16 00:23:00;;;;;;;2.20;1.33;;;;;;;11.93;84.62;92728.31;5070376;28;20033;-47
2021/05/16 00:25:31;;;;;;;2.40;2.00;;;;;;;11.94;84.32;92727.00;5070620;28;20036;-46
2021/05/16 00:27:56;;;;;;;3.40;1.98;;;;;;;12.02;83.86;92727.63;5070669;28;20055;-45
2021/05/16 00:30:43;;;;;;;1.23;1.13;;;;;;;11.84;84.36;92729.00;5070450;28;20579;-47
2021/05/16 00:33:08;;;;;;;3.60;1.27;;;;;;;12.06;83.29;92739.00;5070231;28;20572;-48
2021/05/16 00:36:05;;;;;;;1.17;1.10;;;;;;;12.08;83.08;92728.09;5070571;28;20028;-47
2021/05/16 00:38:33;;;;;;;1.52;1.42;;;;;;;12.17;82.95;92732.22;5086482;28;20529;-48
2021/05/16 00:40:58;;;;;;;2.13;1.52;;;;;;;12.14;82.65;92736.13;5090149;28;20063;-49
2021/05/16 00:43:24;;;;;;;2.25;1.33;;;;;;;12.03;83.85;92736.66;5090291;28;20028;-47
2021/05/16 00:46:24;;;;;;;3.10;2.05;;;;;;;12.13;83.72;92735.38;5090493;28;20027;-46
2021/05/16 00:49:21;;;;;;;2.95;1.42;;;;;;;12.24;83.33;92730.63;5089943;28;20028;-45
2021/05/16 00:52:06;;;;;;;2.17;1.77;;;;;;;12.27;82.72;92729.47;5069926;28;20032;-48
2021/05/16 00:54:31;;;;;;;1.67;1.58;;;;;;;12.31;82.40;92729.78;5069723;28;20491;-49
2021/05/16 00:57:03;;;;;;;1.92;1.65;;;;;;;12.31;82.24;92724.25;5069638;28;20029;-48
2021/05/16 00:59:29;;;;;;;2.08;1.55;;;;;;;12.18;82.45;92728.13;5069810;28;20515;-46
2021/05/16 01:02:13;;;;;;;1.58;1.48;;;;;;;12.13;83.26;92720.81;5069975;28;20036;-45
2021/05/16 01:04:45;;;;;;;2.13;1.25;;;;;;;12.17;82.55;92724.63;5069529;28;20504;-46
2021/05/16 01:07:19;;;;;;;3.10;2.25;;;;;;;12.21;82.51;92729.03;5069596;28;20389;-48
2021/05/16 01:09:45;;;;;;;1.63;1.52;;;;;;;12.15;82.81;92730.00;5069734;28;20063;-48
2021/05/16 01:12:11;;;;;;;1.50;1.40;;;;;;;12.12;83.49;92725.66;5069739;28;20404;-47
2021/05/16 01:15:03;;;;;;;1.48;1.38;;;;;;;12.16;83.31;92722.44;5085384;28;20116;-46
2021/05/16 01:18:01;;;;;;;1.95;1.30;;;;;;;12.10;83.10;92724.75;5069705;28;20042;-49
2021/05/16 01:20:47;;;;;;;3.78;1.38;;;;;;;12.07;83.22;92710.03;5069383;28;20025;-44
2021/05/16 01:23:22;;;;;;;2.22;1.95;;;;;;;12.12;82.70;92716.59;5069728;28;20040;-46
2021/05/16 01:25:48;;;;;;;3.60;1.55;;;;;;;12.06;83.00;92714.09;5069339;28;20632;-45
2021/05/16 01:28:16;;;;;;;2.03;1.73;;;;;;;12.10;83.28;92716.47;5069310;28;20021;-46
2021/05/16 01:30:49;;;;;;;1.55;1.45;;;;;;;12.07;83.53;92712.06;5069323;28;20062;-44
2021/05/16 01:33:35;;;;;;;4.00;1.83;;;;;;;12.13;83.68;92721.56;5069328;28;20028;-45
2021/05/16 01:36:00;;;;;;;2.80;1.48;;;;;;;12.06;84.05;92716.16;5069124;28;20455;-47
2021/05/16 01:38:46;;;;;;;1.67;1.58;;;;;;;12.15;83.38;92720.97;5084659;28;20032;-45
2021/05/16 01:41:30;;;;;;;1.58;1.48;;;;;;;12.16;83.44;92712.13;5087962;28;20142;-45
2021/05/16 01:44:33;;;;;;;1.90;1.65;;;;;;;12.22;83.65;92720.13;5089650;28;20028;-44
2021/05/16 01:47:10;;;;;;;1.60;1.50;;;;;;;12.13;83.18;92724.31;5089580;28;20032;-45
2021/05/16 01:50:03;;;;;;;2.28;2.08;;;;;;;12.14;83.07;92717.50;5089546;28;20016;-46
2021/05/16 01:52:35;;;;;;;2.80;1.70;;;;;;;12.15;82.40;92713.41;5089164;28;20032;-45
2021/05/16 01:55:00;;;;;;;1.23;1.10;;;;;;;12.13;82.83;92712.53;5089529;28;20031;-44
2021/05/16 01:57:26;;;;;;;4.97;2.03;;;;;;;12.11;82.78;92712.38;5089523;28;20020;-48
2021/05/16 01:59:52;;;;;;;2.17;1.70;;;;;;;12.00;83.45;92705.34;5088333;28;20090;-45
2021/05/16 02:02:18;;;;;;;2.70;1.95;;;;;;;11.89;84.11;92703.09;5087928;28;20032;-46
2021/05/16 02:04:54;;;;;;;5.63;2.67;;;;;;;11.86;84.26;92698.72;5089171;28;20020;-45
2021/05/16 02:07:19;;;;;;;3.05;2.35;;;;;;;11.82;85.03;92694.94;5089452;28;20027;-42
2021/05/16 02:09:48;;;;;;;2.40;1.50;;;;;;;11.89;85.18;92697.56;5082442;28;20397;-45
2021/05/16 02:12:16;;;;;;;1.65;1.55;;;;;;;11.85;84.55;92691.00;5077480;28;20036;-45
2021/05/16 02:15:08;;;;;;;2.60;1.92;;;;;;;11.73;85.59;92696.34;5079021;28;20115;-44
2021/05/16 02:17:35;;;;;;;1.55;1.10;;;;;;;11.73;86.06;92692.84;5071926;28;20030;-45
2021/05/16 02:20:04;;;;;;;2.10;1.70;;;;;;;11.68;85.88;92693.81;5072611;28;20438;-45
2021/05/16 02:22:57;;;;;;;1.83;1.52;;;;;;;11.63;86.24;92694.81;5072203;28;20458;-44
2021/05/16 02:25:48;;;;;;;18.67;7.20;;;;;;;11.71;86.15;92693.41;5072348;28;20440;-47
2021/05/16 02:28:37;;;;;;;4.30;2.78;;;;;;;11.68;86.41;92689.03;5072346;28;20035;-48
2021/05/16 02:31:30;;;;;;;2.65;2.00;;;;;;;11.77;85.87;92698.69;5071876;28;20485;-48
2021/05/16 02:33:56;;;;;;;4.47;2.25;;;;;;;11.80;85.85;92689.94;5072408;28;20029;-49
2021/05/16 02:36:21;;;;;;;4.25;2.70;;;;;;;11.85;85.54;92705.56;5072863;28;20028;-47
2021/05/16 02:39:20;;;;;;;5.38;3.33;;;;;;;11.86;85.89;92701.50;5091213;28;20038;-48
2021/05/16 02:41:46;;;;;;;2.83;2.08;;;;;;;11.83;85.68;92707.44;5052510;28;20049;-49
2021/05/16 02:44:18;;;;;;;3.08;2.40;;;;;;;11.75;85.51;92696.50;5052760;28;20082;-50
2021/05/16 02:46:44;;;;;;;1.38;1.25;;;;;;;11.89;85.17;92700.34;5052643;28;20032;-45
2021/05/16 02:49:09;;;;;;;1.52;0.85;;;;;;;11.88;84.41;92707.19;5052151;28;20060;-44
2021/05/16 02:51:37;;;;;;;1.92;1.70;;;;;;;11.66;84.10;92691.59;5052573;28;20049;-43
2021/05/16 02:54:03;;;;;;;0.85;0.82;;;;;;;11.73;84.95;92718.47;5052431;28;20418;-44
2021/05/16 02:56:56;;;;;;;0.75;0.75;;;;;;;11.85;85.01;92722.16;5052066;28;20025;-44
2021/05/16 02:59:32;;;;;;;3.15;2.47;;;;;;;11.67;85.74;92722.78;5051952;28;20040;-45
2021/05/16 03:02:27;;;;;;;1.98;1.45;;;;;;;11.63;86.59;92723.16;5052052;28;20054;-45
2021/05/16 03:04:52;;;;;;;8.45;4.57;;;;;;;11.67;86.77;92726.28;5051899;28;20115;-47
2021/05/16 03:07:47;;;;;;;9.88;5.93;;;;;;;11.78;86.70;92731.28;5051794;28;20033;-45
2021/05/16 03:13:52;;;;;;;21.60;11.60;;;;;;;11.71;87.04;92728.63;5030374;28;20084;-44
2021/05/16 03:16:18;;;;;;;11.13;6.38;;;;;;;11.60;86.35;92729.13;5051616;28;20033;-44
2021/05/16 03:18:43;;;;;;;11.45;5.90;;;;;;;11.69;86.28;92734.00;5051550;28;20025;-44
2021/05/16 03:21:08;;;;;;;21.35;9.25;;;;;;;11.63;86.13;92731.44;5035820;28;20021;-46
2021/05/16 03:24:11;;;;;;;33.10;15.65;;;;;;;11.70;86.99;92735.44;5031822;28;20028;-46
2021/05/16 03:26:36;;;;;;;122.07;46.50;;;;;;;11.87;86.30;92740.94;5031307;28;20412;-44
2021/05/16 03:29:04;;;;;;;8.60;4.60;;;;;;;11.93;85.81;92733.13;5031655;28;20029;-44
2021/05/16 03:31:53;;;;;;;4.88;2.53;;;;;;;12.03;85.85;92744.97;5031319;28;20107;-46
2021/05/16 03:34:19;;;;;;;;;;;;;;;11.99;86.28;92744.66;5032183;28;20048;-47
2021/05/16 03:36:44;;;;;;;1.90;1.70;;;;;;;12.04;86.70;92749.91;5032847;28;20401;-44
2021/05/16 03:39:09;;;;;;;1.17;0.90;;;;;;;12.02;86.10;92747.00;5051522;28;20033;-45
2021/05/16 03:41:35;;;;;;;1.65;1.45;;;;;;;12.17;85.51;92749.53;5088268;28;20506;-46
2021/05/16 03:44:00;;;;;;;1.30;1.20;;;;;;;12.23;84.64;92754.81;5091177;28;20469;-47
2021/05/16 03:46:26;;;;;;;2.53;2.00;;;;;;;12.37;83.87;92758.66;5091189;28;20028;-42
2021/05/16 03:48:51;;;;;;;1.17;1.00;;;;;;;12.32;84.15;92753.41;5091379;28;20027;-46
2021/05/16 03:51:17;;;;;;;1.42;1.33;;;;;;;12.25;84.23;92745.94;5091392;28;20411;-44
2021/05/16 03:53:50;;;;;;;3.65;1.95;;;;;;;12.28;84.30;92742.03;5091069;28;20024;-46
2021/05/16 03:56:24;;;;;;;2.45;2.08;;;;;;;12.38;84.91;92748.31;5090973;28;20081;-44
2021/05/16 03:58:50;;;;;;;2.53;2.25;;;;;;;12.37;85.04;92752.38;5090913;28;20567;-44
2021/05/16 04:01:15;;;;;;;1.90;1.80;;;;;;;12.33;84.59;92744.50;5090844;28;20123;-45
2021/05/16 04:04:02;;;;;;;2.22;2.03;;;;;;;12.37;84.63;92744.81;5091122;28;20103;-44
2021/05/16 04:07:11;;;;;;;2.83;1.70;;;;;;;12.42;84.10;92752.13;5090715;28;20024;-44
2021/05/16 04:09:42;;;;;;;1.10;1.10;;;;;;;12.28;84.06;92742.72;5082585;28;20037;-45
2021/05/16 04:12:19;;;;;;;0.82;0.82;;;;;;;12.30;84.15;92756.72;5070697;28;20028;-45
2021/05/16 04:15:33;;;;;;;1.77;1.27;;;;;;;12.28;84.12;92751.03;5069728;28;20032;-45
2021/05/16 04:17:58;;;;;;;1.58;1.45;;;;;;;12.31;83.34;92754.69;5070262;28;20047;-47
2021/05/16 04:20:39;;;;;;;2.97;2.33;;;;;;;12.33;83.47;92749.31;5070393;28;20024;-46
2021/05/16 04:23:05;;;;;;;1.10;1.00;;;;;;;12.39;82.93;92744.25;5070903;28;20028;-45
2021/05/16 04:25:42;;;;;;;1.08;0.90;;;;;;;12.44;83.40;92759.84;5076535;28;20101;-47
2021/05/16 04:28:08;;;;;;;1.23;1.08;;;;;;;12.45;83.40;92756.47;5083030;28;20592;-49
2021/05/16 04:30:40;;;;;;;0.98;0.98;;;;;;;12.43;84.12;92752.84;5090153;28;20024;-49
2021/05/16 04:33:06;;;;;;;2.05;0.90;;;;;;;12.43;83.69;92750.78;5090491;28;20019;-46
2021/05/16 04:35:40;;;;;;;1.00;0.85;;;;;;;12.49;83.55;92750.53;5090261;28;20028;-48
2021/05/16 04:38:05;;;;;;;1.15;1.05;;;;;;;12.51;83.79;92759.72;5089406;28;20020;-45
2021/05/16 04:41:02;;;;;;;0.88;0.88;;;;;;;12.61;84.03;92752.19;5090110;28;20051;-48
2021/05/16 04:44:02;;;;;;;0.82;0.77;;;;;;;12.72;82.55;92753.66;5090086;28;20032;-51
2021/05/16 04:46:42;;;;;;;1.25;1.15;;;;;;;12.76;83.12;92749.16;5090114;28;20040;-47
2021/05/16 04:49:07;;;;;;;0.93;0.90;;;;;;;12.86;83.02;92763.03;5090519;28;20032;-47
2021/05/16 04:51:53;;;;;;;4.72;2.47;;;;;;;12.95;82.71;92760.25;5090467;28;20020;-46
2021/05/16 04:54:37;;;;;;;2.10;1.90;;;;;;;12.95;82.68;92767.84;5090087;28;20053;-48
2021/05/16 04:57:05;;;;;;;2.15;1.95;;;;;;;12.94;82.52;92767.13;5090156;28;20023;-45
2021/05/16 04:59:51;;;;;;;1.80;1.55;;;;;;;12.85;82.51;92764.34;5086687;28;20054;-43
2021/05/16 05:02:37;;;;;;;3.40;1.45;;;;;;;12.95;82.62;92767.84;5068880;28;20051;-47
2021/05/16 05:05:04;;;;;;;2.03;1.92;;;;;;;12.89;82.67;92772.94;5069732;28;20024;-47
2021/05/16 05:07:33;;;;;;;1.30;1.15;;;;;;;13.02;82.29;92763.47;5069671;28;20106;-45
2021/05/16 05:09:58;;;;;;;1.60;1.50;;;;;;;13.09;82.56;92766.16;5069657;28;20098;-50
2021/05/16 05:12:24;;;;;;;0.70;0.70;;;;;;;13.16;81.46;92770.09;5069874;28;20028;-47
2021/05/16 05:14:51;;;;;;;0.82;0.77;;;;;;;13.28;80.51;92771.72;5069577;28;20587;-46
2021/05/16 05:17:17;;;;;;;1.27;1.17;;;;;;;13.42;80.98;92764.44;5069680;28;20432;-47
2021/05/16 05:19:42;;;;;;;3.40;2.03;;;;;;;13.51;81.22;92774.78;5069855;28;20020;-45
2021/05/16 05:22:08;;;;;;;2.20;1.90;;;;;;;13.67;80.97;92773.16;5069518;28;20031;-45
2021/05/16 05:24:33;;;;;;;2.83;2.28;;;;;;;13.81;80.67;92776.22;5069480;28;20024;-44
2021/05/16 05:26:58;;;;;;;2.63;1.95;;;;;;;13.94;80.35;92786.16;5069768;28;20017;-45
2021/05/16 05:29:24;;;;;;;2.63;2.13;;;;;;;14.06;79.94;92784.22;5069741;28;20141;-45
2021/05/16 05:31:49;;;;;;;1.52;1.42;;;;;;;14.12;78.98;92776.34;5069704;28;20532;-44
2021/05/16 05:34:15;;;;;;;2.03;1.45;;;;;;;14.23;78.68;92786.78;5069283;28;20552;-45
2021/05/16 05:36:40;;;;;;;1.77;1.67;;;;;;;14.20;78.59;92774.84;5070263;28;20027;-44
2021/05/16 05:39:06;;;;;;;1.40;1.30;;;;;;;14.40;77.39;92794.97;5089709;28;20023;-46
2021/05/16 05:41:32;;;;;;;2.65;1.67;;;;;;;14.54;75.89;92786.88;5089199;28;20043;-47
2021/05/16 05:43:57;;;;;;;2.13;1.38;;;;;;;14.66;75.84;92787.72;5089700;28;20161;-45
2021/05/16 05:46:23;;;;;;;1.60;1.17;;;;;;;14.85;76.03;92788.38;5089613;28;20496;-45
2021/05/16 05:48:48;;;;;;;2.53;1.35;;;;;;;15.10;75.79;92796.25;5089344;28;20025;-44
2021/05/16 05:51:14;;;;;;;1.67;1.33;;;;;;;15.22;74.66;92796.34;5092075;28;20016;-46
2021/05/16 05:54:00;;;;;;;2.15;1.80;;;;;;;15.25;74.44;92789.59;5093685;28;20025;-46
2021/05/16 05:56:26;;;;;;;3.60;1.95;;;;;;;15.27;73.14;92787.66;5093300;28;20016;-45
2021/05/16 05:58:59;;;;;;;2.80;1.50;;;;;;;15.30;74.24;92797.63;5093335;28;20028;-46
2021/05/16 06:01:29;;;;;;;2.05;1.85;;;;;;;15.43;73.07;92788.78;5093479;28;20027;-45
2021/05/16 06:03:55;;;;;;;6.75;1.98;;;;;;;15.40;73.11;92795.47;5093300;28;20100;-45
2021/05/16 06:06:32;;;;;;;4.05;1.88;;;;;;;15.37;73.11;92810.59;5093161;28;20111;-46
2021/05/16 06:09:00;;;;;;;1.88;1.30;;;;;;;15.28;72.87;92797.47;5093030;28;20535;-44
2021/05/16 06:11:35;;;;;;;3.97;1.83;;;;;;;15.19;73.42;92803.81;5093090;28;20575;-46
2021/05/16 06:14:00;;;;;;;1.75;1.05;;;;;;;15.23;73.23;92795.00;5093282;28;20033;-45
2021/05/16 06:16:44;;;;;;;1.55;1.33;;;;;;;15.35;73.27;92798.59;5093249;28;20016;-46
2021/05/16 06:19:19;;;;;;;1.63;1.52;;;;;;;15.49;72.58;92774.50;5093096;28;20028;-46
2021/05/16 06:21:45;;;;;;;2.95;2.45;;;;;;;15.84;72.31;92792.84;5092904;28;20016;-46
2021/05/16 06:24:24;;;;;;;1.02;0.93;;;;;;;16.06;70.91;92796.31;5093028;28;20050;-44
2021/05/16 06:26:50;;;;;;;1.65;1.20;;;;;;;16.17;71.38;92803.97;5093029;28;20016;-45
2021/05/16 06:29:15;;;;;;;1.33;1.10;;;;;;;16.21;71.27;92801.44;5092724;28;20031;-46
2021/05/16 06:31:42;;;;;;;1.88;1.00;;;;;;;16.19;69.73;92803.38;5092863;28;20111;-44
2021/05/16 06:34:08;;;;;;;2.30;1.67;;;;;;;16.20;70.08;92802.75;5092887;28;20460;-48
2021/05/16 06:36:34;;;;;;;1.35;1.20;;;;;;;16.02;69.88;92800.88;5092548;28;20031;-44
2021/05/16 06:38:59;;;;;;;1.05;1.02;;;;;;;16.08;67.96;92799.22;5092793;28;20065;-44
2021/05/16 06:41:27;;;;;;;1.27;1.05;;;;;;;16.30;68.91;92802.66;5092230;28;20509;-45
2021/05/16 06:44:05;;;;;;;4.07;1.38;;;;;;;16.63;69.51;92798.50;5092739;28;20047;-42
2021/05/16 06:46:39;;;;;;;2.15;1.52;;;;;;;17.03;67.22;92802.28;5092330;28;20717;-45
2021/05/16 06:49:05;;;;;;;1.50;1.40;;;;;;;17.02;67.02;92790.41;5091566;28;20038;-45
2021/05/16 06:51:30;;;;;;;6.68;1.40;;;;;;;17.28;66.70;92805.91;5091798;28;20028;-46
2021/05/16 06:53:59;;;;;;;1.77;1.30;;;;;;;17.45;66.86;92794.34;5090575;28;20024;-44
2021/05/16 06:57:03;;;;;;;2.13;1.70;;;;;;;18.07;64.47;92794.44;5092270;28;20035;-44
2021/05/16 06:59:29;;;;;;;1.40;1.30;;;;;;;18.52;62.09;92796.91;5087159;28;20665;-45
2021/05/16 07:02:07;;;;;;;2.83;1.77;;;;;;;18.73;60.09;92800.19;5085435;28;20025;-44
2021/05/16 07:04:35;;;;;;;1.60;1.27;;;;;;;18.51;61.23;92801.06;5082459;28;20503;-44
2021/05/16 07:07:01;;;;;;;1.33;1.23;;;;;;;18.21;64.14;92788.94;5088803;28;20027;-43
2021/05/16 07:09:27;;;;;;;1.73;1.55;;;;;;;18.23;63.27;92785.50;5089766;28;20063;-44
2021/05/16 07:12:12;;;;;;;3.17;1.50;;;;;;;18.26;60.73;92789.88;5086151;28;20055;-46
2021/05/16 07:14:37;;;;;;;2.10;1.90;;;;;;;18.26;62.94;92787.09;5086110;28;20020;-45
2021/05/16 07:17:13;;;;;;;4.68;1.65;;;;;;;18.49;62.39;92786.97;5084051;28;20419;-43
2021/05/16 07:19:38;;;;;;;2.17;0.93;;;;;;;18.48;61.65;92789.03;5085846;28;20531;-46
2021/05/16 07:22:05;;;;;;;1.67;1.10;;;;;;;18.49;61.26;92787.72;5089689;28;20016;-44
2021/05/16 07:25:01;;;;;;;0.95;0.95;;;;;;;18.29;61.68;92797.75;5087465;28;20012;-46
2021/05/16 07:27:27;;;;;;;2.17;1.92;;;;;;;18.12;62.60;92795.41;5085544;28;20031;-47
2021/05/16 07:30:13;;;;;;;2.97;1.55;;;;;;;17.12;64.00;92798.66;5086883;28;20020;-44
2021/05/16 07:33:10;;;;;;;3.22;2.53;;;;;;;17.12;64.70;92793.81;5088847;28;20158;-43
2021/05/16 07:36:01;;;;;;;3.17;2.88;;;;;;;17.12;65.49;92795.88;5088060;28;20531;-45
2021/05/16 07:38:27;;;;;;;2.17;1.77;;;;;;;16.80;65.42;92791.88;5084154;28;20127;-45
2021/05/16 07:40:52;;;;;;;4.50;2.00;;;;;;;16.87;66.33;92802.03;5088835;28;20599;-46
2021/05/16 07:43:46;;;;;;;1.48;1.38;;;;;;;16.75;65.14;92803.38;5088587;28;20031;-45
2021/05/16 07:46:24;;;;;;;7.15;1.63;;;;;;;16.71;67.20;92803.88;5088657;28;20127;-44
2021/05/16 07:48:49;;;;;;;1.77;1.45;;;;;;;16.67;66.05;92798.75;5086191;28;20016;-48
2021/05/16 07:51:15;;;;;;;2.08;1.83;;;;;;;16.45;65.55;92800.16;5088160;28;20020;-46
2021/05/16 07:53:49;;;;;;;2.60;2.05;;;;;;;16.30;67.08;92792.25;5088317;28;20111;-47
2021/05/16 07:56:37;;;;;;;3.63;1.95;;;;;;;16.42;66.75;92793.00;5086477;28;20103;-45
2021/05/16 07:59:20;;;;;;;2.00;1.80;;;;;;;16.57;65.81;92784.22;5087292;28;20024;-45
2021/05/16 08:01:46;;;;;;;3.33;2.38;;;;;;;17.04;64.61;92787.03;5087759;28;20012;-45
2021/05/16 08:04:22;;;;;;;2.92;2.05;;;;;;;17.41;64.47;92794.13;5088274;28;20027;-47
2021/05/16 08:06:48;;;;;;;2.30;1.70;;;;;;;17.91;61.54;92790.72;5086885;28;20101;-49
2021/05/16 08:10:06;;;;;;;2.45;1.67;;;;;;;18.42;59.41;92796.34;5087023;28;20020;-45
2021/05/16 08:12:51;;;;;;;1.85;1.73;;;;;;;18.62;59.45;92803.06;5085162;28;20408;-47
2021/05/16 08:15:17;;;;;;;2.28;2.08;;;;;;;19.14;58.36;92808.66;5080015;28;20627;-46
2021/05/16 08:17:44;;;;;;;2.05;1.92;;;;;;;20.04;57.73;92803.41;5080571;28;20066;-46
2021/05/16 08:20:11;;;;;;;4.63;1.33;;;;;;;20.82;54.74;92787.53;5076944;28;20123;-47
2021/05/16 08:22:45;;;;;;;2.22;1.58;;;;;;;21.00;52.86;92799.59;5069426;28;20497;-45
2021/05/16 08:25:12;;;;;;;1.15;1.05;;;;;;;21.03;53.79;92803.94;5073312;28;20024;-46
2021/05/16 08:27:44;;;;;;;4.68;1.60;;;;;;;20.82;53.65;92801.56;5088541;28;20048;-43
2021/05/16 08:30:19;;;;;;;2.65;1.80;;;;;;;20.28;54.76;92801.81;5087863;28;20036;-45
2021/05/16 08:32:48;;;;;;;5.95;2.17;;;;;;;19.83;55.73;92809.38;5077074;28;20078;-49
2021/05/16 08:35:14;;;;;;;2.38;1.90;;;;;;;19.36;56.87;92798.63;5080496;28;20103;-43
2021/05/16 08:37:41;;;;;;;9.63;1.70;;;;;;;19.06;57.39;92801.91;5075354;28;20157;-48
2021/05/16 08:40:07;;;;;;;1.95;1.50;;;;;;;18.86;58.81;92804.38;5079309;28;20040;-46
2021/05/16 08:43:01;;;;;;;1.48;1.35;;;;;;;18.61;60.00;92804.41;5083200;28;20473;-47
2021/05/16 08:45:27;;;;;;;4.22;1.63;;;;;;;18.81;59.75;92805.50;5084879;28;20047;-46
2021/05/16 08:51:20;;;;;;;2.25;2.03;;;;;;;18.78;60.13;92820.69;5072890;28;20061;-48
2021/05/16 08:53:53;;;;;;;2.80;2.50;;;;;;;18.79;59.56;92817.31;5080560;28;20103;-46
2021/05/16 08:56:47;;;;;;;2.90;2.22;;;;;;;18.79;58.97;92820.09;5086986;28;20044;-46
2021/05/16 08:59:27;;;;;;;2.97;2.67;;;;;;;18.66;59.96;92825.66;5086734;28;20035;-46
2021/05/16 09:02:05;;;;;;;2.42;2.13;;;;;;;18.64;60.12;92819.94;5087630;28;20027;-48
2021/05/16 09:08:00;;;;;;;2.08;1.88;;;;;;;18.85;59.37;92814.81;5087066;28;20031;-47
2021/05/16 09:10:25;;;;;;;3.78;2.65;;;;;;;18.86;58.42;92824.66;5087507;28;20047;-45
2021/05/16 09:12:51;;;;;;;3.45;2.42;;;;;;;18.92;59.26;92822.19;5087176;28;20492;-46
2021/05/16 09:15:21;;;;;;;2.45;1.95;;;;;;;18.84;59.19;92810.56;5086901;28;20042;-48
2021/05/16 09:18:30;;;;;;;3.10;2.58;;;;;;;19.04;58.89;92827.69;5086073;28;20058;-45
2021/05/16 09:20:55;;;;;;;3.33;2.53;;;;;;;18.89;59.57;92825.50;5087192;28;20024;-45
2021/05/16 09:23:21;;;;;;;5.20;3.80;;;;;;;18.93;58.58;92820.84;5077676;28;20405;-45
2021/05/16 09:25:47;;;;;;;2.50;2.25;;;;;;;19.23;58.01;92818.91;5087405;28;20016;-46
2021/05/16 09:28:14;;;;;;;2.20;2.00;;;;;;;19.21;58.15;92815.28;5087000;28;20455;-46
2021/05/16 09:30:41;;;;;;;3.20;2.55;;;;;;;19.42;57.53;92820.59;5086779;28;20554;-48
2021/05/16 09:33:13;;;;;;;2.22;1.95;;;;;;;19.25;59.52;92813.41;5087199;28;20028;-45
2021/05/16 09:35:42;;;;;;;7.97;2.35;;;;;;;19.76;58.69;92816.75;5084749;28;20496;-47
2021/05/16 09:38:09;;;;;;;2.22;2.00;;;;;;;20.42;57.12;92811.59;5083784;28;20016;-46
2021/05/16 09:40:55;;;;;;;5.80;2.70;;;;;;;20.92;54.81;92810.44;5086945;28;20089;-47
2021/05/16 09:43:27;;;;;;;3.03;1.75;;;;;;;21.26;53.50;92802.13;5084842;28;20035;-48
2021/05/16 09:45:57;;;;;;;1.65;1.55;;;;;;;21.23;52.24;92803.41;5086989;28;20024;-45
2021/05/16 09:48:31;;;;;;;2.58;1.85;;;;;;;21.55;52.06;92796.41;5086885;28;20107;-45
2021/05/16 09:51:22;;;;;;;3.00;2.13;;;;;;;21.62;51.63;92798.81;5087048;28;20028;-46
2021/05/16 09:53:48;;;;;;;4.50;1.30;;;;;;;21.89;50.40;92792.28;5085362;28;20020;-48
2021/05/16 09:56:14;;;;;;;1.42;1.05;;;;;;;22.17;48.41;92787.81;5086465;28;20024;-45
2021/05/16 09:58:40;;;;;;;1.13;1.05;;;;;;;22.12;46.01;92789.00;5086772;28;20559;-45
2021/05/16 10:01:05;;;;;;;2.05;1.30;;;;;;;22.28;48.99;92784.03;5086958;28;20050;-47
2021/05/16 10:03:32;;;;;;;1.00;1.00;;;;;;;22.45;48.27;92794.56;5077096;28;20032;-47
2021/05/16 10:05:58;;;;;;;1.55;1.17;;;;;;;22.60;46.92;92782.53;5074058;28;20458;-46
2021/05/16 10:08:24;;;;;;;1.27;1.05;;;;;;;22.93;46.79;92786.59;5079163;28;20024;-45
2021/05/16 10:10:49;;;;;;;1.65;1.27;;;;;;;23.00;44.38;92774.91;5087110;28;20019;-46
2021/05/16 10:13:15;;;;;;;1.00;1.00;;;;;;;22.63;46.53;92768.53;5087094;28;20054;-51
2021/05/16 10:15:40;;;;;;;5.32;2.45;;;;;;;23.30;45.48;92769.66;5079901;28;20408;-50
2021/05/16 10:18:08;;;;;;;1.83;1.10;;;;;;;23.11;43.92;92764.72;5084319;28;20044;-48
2021/05/16 10:20:37;;;;;;;1.45;0.93;;;;;;;23.74;41.47;92745.88;5085513;28;20032;-48
2021/05/16 10:23:04;;;;;;;0.77;0.60;;;;;;;24.39;39.47;92756.50;5086489;28;20054;-53
2021/05/16 10:25:47;;;;;;;3.60;1.42;;;;;;;25.77;36.25;92748.66;5086865;28;20094;-46
2021/05/16 10:28:17;;;;;;;3.10;1.65;;;;;;;25.96;40.57;92750.56;5084231;28;20131;-50
2021/05/16 10:31:01;;;;;;;6.43;2.95;;;;;;;26.61;37.52;92755.75;5086461;28;20570;-45
2021/05/16 10:33:39;;;;;;;6.00;2.17;;;;;;;26.65;36.51;92764.31;5085684;28;20028;-45
2021/05/16 10:36:04;;;;;;;1.42;0.63;;;;;;;26.53;35.56;92761.19;5067316;28;20592;-47
2021/05/16 10:38:38;;;;;;;4.28;1.25;;;;;;;27.09;36.82;92752.59;5081322;28;20024;-49
2021/05/16 10:41:16;;;;;;;1.13;0.73;;;;;;;27.41;32.82;92753.28;5091047;28;20050;-45
2021/05/16 10:43:42;;;;;;;1.13;0.70;;;;;;;27.18;33.12;92743.56;5091159;28;20059;-46
2021/05/16 10:46:39;;;;;;;1.27;0.90;;;;;;;27.89;34.18;92740.06;5091081;28;20028;-49
2021/05/16 10:49:22;;;;;;;3.67;2.10;;;;;;;28.13;32.52;92726.31;5091827;28;20028;-48
2021/05/16 10:51:48;;;;;;;0.75;0.50;;;;;;;27.86;33.10;92732.19;5091767;28;20491;-50
2021/05/16 10:54:27;;;;;;;2.00;1.42;;;;;;;26.94;33.96;92723.94;5090797;28;20024;-49
2021/05/16 10:57:11;;;;;;;8.82;2.00;;;;;;;27.16;34.71;92720.84;5089695;28;20024;-48
2021/05/16 10:59:38;;;;;;;2.38;0.68;;;;;;;27.26;34.11;92711.84;5084318;28;20024;-49
2021/05/16 11:02:03;;;;;;;1.63;0.80;;;;;;;28.29;33.88;92715.25;5090080;28;20035;-49
2021/05/16 11:04:45;;;;;;;0.88;0.80;;;;;;;28.21;31.53;92717.25;5083017;28;20416;-49
2021/05/16 11:07:10;;;;;;;2.58;1.35;;;;;;;27.79;33.53;92729.25;5071876;28;20020;-51
2021/05/16 11:09:36;;;;;;;1.80;1.00;;;;;;;26.99;34.29;92728.31;5072024;28;20024;-47
2021/05/16 11:12:02;;;;;;;1.15;0.90;;;;;;;26.10;34.66;92727.56;5070751;28;20078;-46
2021/05/16 11:14:32;;;;;;;1.50;1.08;;;;;;;25.48;36.33;92726.63;5052849;28;20464;-47
2021/05/16 11:17:01;;;;;;;3.30;1.67;;;;;;;25.06;37.95;92731.78;5051858;28;20025;-50
2021/05/16 11:19:29;;;;;;;1.63;0.65;;;;;;;24.01;38.12;92708.03;5051846;28;20642;-49
2021/05/16 11:21:55;;;;;;;0.40;0.40;;;;;;;23.34;39.91;92742.41;5051424;28;20508;-49
2021/05/16 11:24:41;;;;;;;2.92;0.80;;;;;;;22.87;41.42;92746.97;5051374;28;20021;-46
2021/05/16 11:27:18;;;;;;;0.50;0.50;;;;;;;22.40;41.37;92756.38;5051463;28;20017;-47
2021/05/16 11:29:44;;;;;;;1.50;0.70;;;;;;;21.69;43.38;92752.03;5051088;28;20025;-49
2021/05/16 11:32:09;;;;;;;2.80;1.38;;;;;;;21.49;44.36;92770.84;5051299;28;20512;-51
2021/05/16 11:34:35;;;;;;;4.90;2.38;;;;;;;20.94;46.21;92774.03;5051026;28;20033;-50
2021/05/16 11:37:17;;;;;;;1.38;1.23;;;;;;;20.48;48.45;92780.34;5050860;28;20481;-51
2021/05/16 11:39:42;;;;;;;2.42;1.80;;;;;;;20.19;50.18;92791.53;5051415;28;20162;-49
2021/05/16 11:42:08;;;;;;;3.45;1.48;;;;;;;19.78;51.40;92793.69;5050897;28;20476;-50
2021/05/16 11:44:34;;;;;;;1.48;1.38;;;;;;;19.48;52.11;92788.03;5050894;28;20025;-46
2021/05/16 11:46:59;;;;;;;1.73;1.30;;;;;;;19.23;52.38;92795.81;5051257;28;20021;-46
2021/05/16 11:49:27;;;;;;;3.80;1.27;;;;;;;18.83;54.67;92795.13;5047795;28;20024;-51
2021/05/16 11:51:59;;;;;;;1.95;1.05;;;;;;;18.60;56.88;92800.16;5048531;28;20029;-47
2021/05/16 11:54:35;;;;;;;1.00;0.90;;;;;;;18.37;58.86;92809.38;5048477;28;20036;-47
2021/05/16 11:57:01;;;;;;;1.20;1.10;;;;;;;18.18;59.32;92802.06;5048756;28;20064;-46
2021/05/16 11:59:29;;;;;;;2.85;1.42;;;;;;;18.09;60.19;92810.59;5049161;28;20081;-52
2021/05/16 12:01:55;;;;;;;1.15;1.05;;;;;;;17.76;62.02;92801.75;5047367;28;20028;-47
2021/05/16 12:04:21;;;;;;;1.55;1.30;;;;;;;17.67;61.48;92827.72;5047162;28;20059;-49
2021/05/16 12:06:48;;;;;;;5.72;2.15;;;;;;;17.38;62.41;92825.31;5048654;28;20061;-47
2021/05/16 19:47:20;;;;;;;7.38;5.35;;;;;;;11.61;81.34;92938.66;4965149;28;20077;-64
2021/05/16 19:49:47;;;;;;;9.80;5.55;;;;;;;11.52;81.77;92947.59;4970553;28;20038;-63
2021/05/16 19:52:12;;;;;;;4.25;3.60;;;;;;;11.63;81.02;92936.06;4971044;28;20085;-64